Terminal Aerodrome Forecast
Issued by NWS Cleveland, OH

Home | Current Version | Previous Version | Graphics & Text | Print | Product List | Glossary On
Versions: 1 2 3 4 5 6 7 8 9 10 11 12 13
000
FTUS41 KCLE 280500
TAFMFD
TAF
KMFD 280531Z 2806/2906 20014KT P6SM OVC120 WS020/22045KT
     FM281200 20015G25KT P6SM OVC070
     FM281700 22020G32KT 5SM -SHRA VCTS OVC025CB
     FM282000 25015G25KT P6SM -SHRA OVC025
     FM290000 24010KT P6SM BKN035=

USA.gov is the U.S. government's official web portal to all federal, state and local government web resources and services.